createdAt,value
2022-10-28T00:00:47.188Z,88.59
2022-10-28T00:01:47.247Z,88.79
2022-10-28T00:02:47.210Z,88.70
2022-10-28T00:03:47.177Z,89.00
2022-10-28T00:04:47.102Z,89.20
2022-10-28T00:05:47.074Z,89.00
2022-10-28T00:06:47.104Z,88.70
2022-10-28T00:07:47.039Z,88.70
2022-10-28T00:08:48.047Z,88.55
2022-10-28T00:09:46.988Z,88.55
2022-10-28T00:10:46.968Z,88.45
2022-10-28T00:11:47.032Z,88.75
2022-10-28T00:12:46.921Z,88.49
2022-10-28T00:13:46.913Z,88.90
2022-10-28T00:14:46.881Z,88.55
2022-10-28T00:15:46.858Z,88.25
2022-10-28T00:16:46.861Z,88.65
2022-10-28T00:17:46.818Z,88.55
2022-10-28T00:18:46.787Z,88.85
2022-10-28T00:19:46.763Z,89.26
2022-10-28T00:20:46.784Z,89.20
2022-10-28T00:21:46.751Z,89.16
2022-10-28T00:22:46.701Z,89.00
2022-10-28T00:23:46.674Z,89.20
2022-10-28T00:24:47.661Z,89.30
2022-10-28T00:25:46.647Z,89.00
2022-10-28T00:26:46.635Z,89.00
2022-10-28T00:27:46.589Z,89.06
2022-10-28T00:28:46.574Z,89.20
2022-10-28T00:29:46.554Z,88.85
2022-10-28T00:30:46.536Z,88.85
2022-10-28T00:31:46.533Z,89.26
2022-10-28T00:32:46.486Z,89.40
2022-10-28T00:33:46.459Z,88.85
2022-10-28T00:34:46.434Z,89.30
2022-10-28T00:35:46.456Z,88.96
2022-10-28T00:36:46.394Z,88.96
2022-10-28T00:37:46.441Z,89.36
2022-10-28T00:38:46.353Z,89.26
2022-10-28T00:39:46.333Z,89.36
2022-10-28T00:40:46.350Z,89.30
2022-10-28T00:41:46.318Z,89.36
2022-10-28T00:42:46.263Z,89.36
2022-10-28T00:43:46.273Z,89.56
2022-10-28T00:44:46.227Z,88.85
2022-10-28T00:45:46.204Z,89.36
2022-10-28T00:46:46.204Z,89.06
2022-10-28T00:47:46.179Z,89.50
2022-10-28T00:48:46.139Z,89.10
2022-10-28T00:49:46.123Z,89.06
2022-10-28T00:50:46.099Z,89.36
2022-10-28T00:51:46.110Z,89.56
2022-10-28T00:52:47.057Z,89.36
2022-10-28T00:53:46.182Z,89.06
2022-10-28T00:54:46.015Z,89.06
2022-10-28T00:55:45.993Z,89.46
2022-10-28T00:56:45.998Z,88.85
2022-10-28T00:57:45.990Z,89.36
2022-10-28T00:58:45.978Z,89.06
2022-10-28T00:59:45.907Z,89.26
2022-10-28T01:00:45.894Z,89.36
2022-10-28T01:01:46.005Z,89.36
2022-10-28T01:02:45.876Z,89.26
2022-10-28T01:03:45.821Z,89.06
2022-10-28T01:04:45.800Z,89.26
2022-10-28T01:05:45.778Z,89.36
2022-10-28T01:06:45.790Z,89.16
2022-10-28T01:07:45.774Z,89.66
2022-10-28T01:08:45.718Z,89.76
2022-10-28T01:09:45.717Z,89.36
2022-10-28T01:10:45.678Z,89.66
2022-10-28T01:11:45.679Z,89.36
2022-10-28T01:12:45.650Z,89.06
2022-10-28T01:13:45.611Z,89.16
2022-10-28T01:14:45.592Z,89.66
2022-10-28T01:15:45.576Z,89.06
2022-10-28T01:16:45.604Z,88.92
2022-10-28T01:17:45.554Z,89.01
2022-10-28T01:18:45.620Z,89.56
2022-10-28T01:19:46.494Z,89.66
2022-10-28T01:20:48.327Z,89.56
2022-10-28T01:21:45.464Z,89.56
2022-10-28T01:22:45.439Z,89.87
2022-10-28T01:23:45.401Z,89.87
2022-10-28T01:24:45.400Z,89.76
2022-10-28T01:25:45.361Z,90.27
2022-10-28T01:26:45.370Z,89.66
2022-10-28T01:27:45.316Z,90.07
2022-10-28T01:28:45.304Z,90.17
2022-10-28T01:29:45.275Z,89.97
2022-10-28T01:30:45.249Z,90.17
2022-10-28T01:31:45.257Z,90.07
2022-10-28T01:32:45.231Z,89.66
2022-10-28T01:33:45.190Z,89.87
2022-10-28T01:34:45.173Z,89.66
2022-10-28T01:35:45.184Z,89.97
2022-10-28T01:36:45.151Z,89.87
2022-10-28T01:37:45.109Z,90.07
2022-10-28T01:38:45.092Z,89.87
2022-10-28T01:39:45.064Z,89.87
2022-10-28T01:40:45.043Z,89.87
2022-10-28T01:41:45.048Z,89.97
2022-10-28T01:42:44.995Z,89.97
2022-10-28T01:43:44.973Z,90.41
2022-10-28T01:44:44.964Z,90.27
2022-10-28T01:45:44.927Z,89.97
2022-10-28T01:46:44.940Z,90.37
2022-10-28T01:47:44.887Z,90.27
2022-10-28T01:48:44.861Z,90.47
2022-10-28T01:49:44.848Z,90.72
2022-10-28T01:50:44.837Z,90.31
2022-10-28T01:51:44.836Z,90.27
2022-10-28T01:52:44.781Z,90.31
2022-10-28T01:53:44.799Z,90.41
2022-10-28T01:54:44.742Z,90.21
2022-10-28T01:55:44.712Z,90.31
2022-10-28T01:56:44.742Z,90.41
2022-10-28T01:57:44.668Z,90.27
2022-10-28T01:58:44.649Z,90.21
2022-10-28T01:59:44.623Z,90.17
2022-10-28T02:00:44.657Z,90.78
2022-10-28T02:01:44.794Z,90.52
2022-10-28T02:02:44.566Z,90.31
2022-10-28T02:03:44.557Z,90.17
2022-10-28T02:04:44.514Z,90.31
2022-10-28T02:05:44.499Z,90.41
2022-10-28T02:06:44.506Z,90.62
2022-10-28T02:07:44.450Z,90.31
2022-10-28T02:08:44.427Z,90.31
2022-10-28T02:09:44.416Z,90.41
2022-10-28T02:10:44.545Z,90.41
2022-10-28T02:11:44.409Z,90.58
2022-10-28T02:12:44.331Z,89.97
2022-10-28T02:13:44.445Z,90.11
2022-10-28T02:14:44.298Z,90.41
2022-10-28T02:15:44.272Z,90.21
2022-10-28T02:16:44.297Z,90.31
2022-10-28T02:17:44.236Z,90.41
2022-10-28T02:18:44.208Z,90.31
2022-10-28T02:19:44.185Z,90.52
2022-10-28T02:20:44.161Z,91.22
2022-10-28T02:21:44.181Z,90.72
2022-10-28T02:22:44.139Z,91.73
2022-10-28T02:23:44.102Z,91.37
2022-10-28T02:24:44.072Z,91.63
2022-10-28T02:25:44.090Z,91.37
2022-10-28T02:26:44.062Z,91.06
2022-10-28T02:27:44.004Z,91.16
2022-10-28T02:28:43.990Z,91.67
2022-10-28T02:29:43.970Z,91.12
2022-10-28T02:30:43.975Z,91.57
2022-10-28T02:31:43.951Z,92.08
2022-10-28T02:32:43.890Z,91.93
2022-10-28T02:33:43.928Z,91.77
2022-10-28T02:34:43.857Z,91.63
2022-10-28T02:35:43.828Z,91.12
2022-10-28T02:36:43.850Z,91.77
2022-10-28T02:37:43.774Z,91.63
2022-10-28T02:38:44.764Z,92.03
2022-10-28T02:39:43.769Z,91.87
2022-10-28T02:40:43.851Z,91.73
2022-10-28T02:41:43.740Z,91.67
2022-10-28T02:42:43.673Z,91.77
2022-10-28T02:43:43.674Z,91.12
2022-10-28T02:44:43.630Z,91.42
2022-10-28T02:45:43.616Z,91.22
2022-10-28T02:46:43.631Z,91.32
2022-10-28T02:47:43.569Z,91.22
2022-10-28T02:48:43.552Z,91.12
2022-10-28T02:49:43.522Z,91.47
2022-10-28T02:50:43.525Z,91.73
2022-10-28T02:51:43.509Z,91.53
2022-10-28T02:52:43.466Z,92.08
2022-10-28T02:53:43.437Z,91.83
2022-10-28T02:54:43.416Z,92.18
2022-10-28T02:55:43.397Z,92.58
2022-10-28T02:56:43.410Z,91.97
2022-10-28T02:57:43.349Z,92.18
2022-10-28T02:58:43.333Z,92.03
2022-10-28T02:59:43.322Z,91.97
2022-10-28T03:00:43.307Z,91.22
2022-10-28T03:01:43.401Z,91.83
2022-10-28T03:02:43.246Z,91.02
2022-10-28T03:03:43.223Z,91.12
2022-10-28T03:04:43.198Z,90.72
2022-10-28T03:05:43.181Z,90.31
2022-10-28T03:06:43.326Z,90.82
2022-10-28T03:07:43.152Z,90.52
2022-10-28T03:08:43.130Z,90.17
2022-10-28T03:09:43.188Z,90.41
2022-10-28T03:10:43.109Z,90.27
2022-10-28T03:11:43.083Z,90.37
2022-10-28T03:12:43.041Z,90.52
2022-10-28T03:13:43.017Z,90.92
2022-10-28T03:14:42.985Z,90.82
2022-10-28T03:15:42.963Z,91.32
2022-10-28T03:16:42.975Z,91.53
2022-10-28T03:17:42.939Z,91.63
2022-10-28T03:18:42.898Z,91.63
2022-10-28T03:19:42.883Z,91.32
2022-10-28T03:20:42.878Z,91.32
2022-10-28T03:21:42.871Z,91.67
2022-10-28T03:22:42.812Z,91.42
2022-10-28T03:23:42.792Z,91.63
2022-10-28T03:24:42.775Z,91.73
2022-10-28T03:25:42.752Z,91.73
2022-10-28T03:26:42.755Z,91.87
2022-10-28T03:27:42.709Z,92.08
2022-10-28T03:28:42.687Z,91.42
2022-10-28T03:29:45.713Z,91.53
2022-10-28T03:30:42.643Z,91.63
2022-10-28T03:31:42.649Z,91.12
2022-10-28T03:32:42.603Z,90.92
2022-10-28T03:33:42.577Z,90.31
2022-10-28T03:34:42.564Z,90.41
2022-10-28T03:35:42.528Z,90.21
2022-10-28T03:36:42.549Z,90.21
2022-10-28T03:37:42.506Z,90.11
2022-10-28T03:38:42.469Z,89.36
2022-10-28T03:39:42.445Z,88.85
2022-10-28T03:40:42.431Z,88.96
2022-10-28T03:41:42.436Z,89.36
2022-10-28T03:42:42.403Z,89.16
2022-10-28T03:43:42.367Z,89.32
2022-10-28T03:44:42.350Z,89.56
2022-10-28T03:45:42.355Z,89.06
2022-10-28T03:46:42.483Z,89.06
2022-10-28T03:47:42.314Z,88.45
2022-10-28T03:48:42.273Z,88.55
2022-10-28T03:49:42.237Z,87.74
2022-10-28T03:50:42.223Z,86.90
2022-10-28T03:51:42.220Z,87.10
2022-10-28T03:52:42.180Z,87.81
2022-10-28T03:53:42.148Z,87.81
2022-10-28T03:54:42.119Z,87.90
2022-10-28T03:55:42.110Z,88.31
2022-10-28T03:56:42.104Z,87.95
2022-10-28T03:57:42.063Z,88.04
2022-10-28T03:58:42.081Z,88.04
2022-10-28T03:59:42.019Z,88.35
2022-10-28T04:00:41.995Z,88.45
2022-10-28T04:01:42.158Z,88.45
2022-10-28T04:02:41.956Z,88.55
2022-10-28T04:03:41.928Z,88.41
2022-10-28T04:04:41.909Z,88.31
2022-10-28T04:05:41.889Z,88.45
2022-10-28T04:06:41.909Z,88.25
2022-10-28T04:07:41.845Z,87.81
2022-10-28T04:08:41.817Z,88.01
2022-10-28T04:09:42.816Z,88.31
2022-10-28T04:10:47.123Z,87.84
2022-10-28T04:11:42.787Z,87.54
2022-10-28T04:12:41.734Z,87.60
2022-10-28T04:13:41.715Z,87.44
2022-10-28T04:14:41.687Z,87.40
2022-10-28T04:15:41.669Z,87.50
2022-10-28T04:16:41.672Z,87.50
2022-10-28T04:17:41.640Z,87.30
2022-10-28T04:18:41.623Z,86.59
2022-10-28T04:19:42.583Z,86.79
2022-10-28T04:20:41.577Z,87.15
2022-10-28T04:21:41.603Z,86.39
2022-10-28T04:22:41.519Z,86.35
2022-10-28T04:23:41.495Z,86.35
2022-10-28T04:24:41.529Z,86.15
2022-10-28T04:25:41.463Z,86.29
2022-10-28T04:26:41.461Z,86.49
2022-10-28T04:27:41.415Z,87.19
2022-10-28T04:28:41.428Z,86.79
2022-10-28T04:29:41.360Z,86.75
2022-10-28T04:30:41.350Z,86.35
2022-10-28T04:31:41.368Z,86.15
2022-10-28T04:32:41.313Z,86.25
2022-10-28T04:33:41.277Z,86.45
2022-10-28T04:34:41.255Z,86.95
2022-10-28T04:35:41.234Z,86.75
2022-10-28T04:36:41.235Z,86.85
2022-10-28T04:37:41.207Z,86.49
2022-10-28T04:38:41.168Z,87.70
2022-10-28T04:39:41.154Z,87.19
2022-10-28T04:40:41.138Z,87.19
2022-10-28T04:41:41.140Z,87.76
2022-10-28T04:42:41.102Z,87.60
2022-10-28T04:43:41.073Z,86.90
2022-10-28T04:44:41.045Z,87.60
2022-10-28T04:45:41.025Z,87.19
2022-10-28T04:46:41.027Z,86.55
2022-10-28T04:47:40.982Z,86.45
2022-10-28T04:48:40.975Z,86.15
2022-10-28T04:49:40.948Z,86.25
2022-10-28T04:50:40.917Z,86.35
2022-10-28T04:51:41.090Z,86.75
2022-10-28T04:52:40.880Z,86.85
2022-10-28T04:53:40.852Z,86.75
2022-10-28T04:54:40.822Z,87.76
2022-10-28T04:55:40.897Z,87.40
2022-10-28T04:56:40.809Z,87.76
2022-10-28T04:57:40.768Z,87.76
2022-10-28T04:58:40.780Z,87.46
2022-10-28T04:59:40.731Z,87.36
2022-10-28T05:00:40.698Z,87.05
2022-10-28T05:01:40.719Z,87.05
2022-10-28T05:02:45.242Z,86.95
2022-10-28T05:03:42.632Z,86.65
2022-10-28T05:04:40.626Z,86.55
2022-10-28T05:05:40.592Z,86.75
2022-10-28T05:06:40.601Z,86.25
2022-10-28T05:07:40.547Z,87.05
2022-10-28T05:08:40.526Z,86.95
2022-10-28T05:09:40.509Z,87.05
2022-10-28T05:10:40.491Z,87.36
2022-10-28T05:11:40.496Z,87.15
2022-10-28T05:12:40.444Z,87.05
2022-10-28T05:13:40.431Z,87.05
2022-10-28T05:14:40.403Z,86.95
2022-10-28T05:15:40.382Z,86.95
2022-10-28T05:16:40.384Z,87.26
2022-10-28T05:17:40.344Z,87.46
2022-10-28T05:18:40.342Z,87.26
2022-10-28T05:19:40.298Z,87.46
2022-10-28T05:20:40.273Z,87.76
2022-10-28T05:21:40.285Z,87.90
2022-10-28T05:22:40.234Z,87.50
2022-10-28T05:23:40.208Z,87.36
2022-10-28T05:24:40.216Z,87.46
2022-10-28T05:25:40.191Z,87.90
2022-10-28T05:26:40.213Z,87.15
2022-10-28T05:27:40.130Z,87.56
2022-10-28T05:28:40.108Z,87.70
2022-10-28T05:29:40.092Z,87.81
2022-10-28T05:30:40.063Z,87.81
2022-10-28T05:31:40.071Z,87.81
2022-10-28T05:32:40.028Z,88.31
2022-10-28T05:33:40.005Z,88.41
2022-10-28T05:34:39.985Z,88.51
2022-10-28T05:35:39.962Z,88.92
2022-10-28T05:36:39.967Z,88.85
2022-10-28T05:37:39.922Z,89.36
2022-10-28T05:38:39.897Z,88.85
2022-10-28T05:39:39.884Z,89.06
2022-10-28T05:40:39.863Z,89.36
2022-10-28T05:41:39.871Z,88.75
2022-10-28T05:42:39.806Z,89.46
2022-10-28T05:43:39.793Z,89.06
2022-10-28T05:44:39.768Z,88.96
2022-10-28T05:45:39.744Z,89.06
2022-10-28T05:46:39.761Z,89.16
2022-10-28T05:47:40.182Z,89.16
2022-10-28T05:48:39.690Z,89.36
2022-10-28T05:49:39.655Z,89.76
2022-10-28T05:50:39.646Z,89.36
2022-10-28T05:51:39.661Z,89.66
2022-10-28T05:52:39.591Z,89.66
2022-10-28T05:53:39.575Z,89.66
2022-10-28T05:54:39.551Z,89.76
2022-10-28T05:55:42.667Z,89.87
2022-10-28T05:56:40.526Z,89.91
2022-10-28T05:57:39.520Z,89.36
2022-10-28T05:58:40.580Z,89.66
2022-10-28T05:59:39.436Z,89.26
2022-10-28T06:00:39.414Z,88.96
2022-10-28T06:01:39.455Z,89.06
2022-10-28T06:02:39.402Z,89.06
2022-10-28T06:03:39.379Z,88.96
2022-10-28T06:04:39.327Z,88.61
2022-10-28T06:05:39.370Z,88.41
2022-10-28T06:06:39.286Z,88.31
2022-10-28T06:07:39.294Z,88.21
2022-10-28T06:08:39.255Z,87.90
2022-10-28T06:09:39.218Z,87.30
2022-10-28T06:10:40.211Z,87.10
2022-10-28T06:11:37.648Z,87.40
2022-10-28T06:12:37.715Z,87.81
2022-10-28T06:13:37.599Z,87.26
2022-10-28T06:14:37.585Z,87.30
2022-10-28T06:15:37.564Z,86.99
2022-10-28T06:16:37.551Z,86.79
2022-10-28T06:17:37.538Z,86.99
2022-10-28T06:18:38.526Z,86.99
2022-10-28T06:19:37.478Z,86.49
2022-10-28T06:20:37.453Z,86.29
2022-10-28T06:21:37.436Z,86.45
2022-10-28T06:22:37.442Z,85.94
2022-10-28T06:23:37.399Z,86.15
2022-10-28T06:24:37.376Z,86.04
2022-10-28T06:25:37.371Z,85.84
2022-10-28T06:26:37.331Z,86.45
2022-10-28T06:27:37.340Z,86.49
2022-10-28T06:28:37.322Z,86.39
2022-10-28T06:29:37.273Z,86.99
2022-10-28T06:30:37.246Z,86.49
2022-10-28T06:31:37.263Z,86.08
2022-10-28T06:32:37.236Z,85.99
2022-10-28T06:33:37.198Z,85.64
2022-10-28T06:34:37.193Z,85.84
2022-10-28T06:35:37.142Z,85.64
2022-10-28T06:36:37.158Z,86.15
2022-10-28T06:37:37.128Z,85.84
2022-10-28T06:38:37.106Z,86.15
2022-10-28T06:39:37.085Z,86.04
2022-10-28T06:40:37.041Z,86.25
2022-10-28T06:41:37.028Z,85.94
2022-10-28T06:42:37.045Z,85.64
2022-10-28T06:43:36.984Z,85.64
2022-10-28T06:44:36.960Z,85.84
2022-10-28T06:45:36.953Z,85.84
2022-10-28T06:46:38.494Z,85.64
2022-10-28T06:47:41.392Z,85.54
2022-10-28T06:48:38.386Z,84.99
2022-10-28T06:49:39.343Z,85.90
2022-10-28T06:50:38.399Z,84.15
2022-10-28T06:51:38.328Z,83.95
2022-10-28T06:52:38.376Z,83.84
2022-10-28T06:53:38.288Z,83.20
2022-10-28T06:54:38.270Z,82.45
2022-10-28T06:55:38.246Z,81.81
2022-10-28T06:56:38.225Z,80.26
2022-10-28T06:57:38.244Z,80.16
2022-10-28T06:58:38.187Z,78.58
2022-10-28T06:59:38.167Z,77.23
2022-10-28T07:00:38.152Z,76.83
2022-10-28T07:01:38.335Z,76.09
2022-10-28T07:02:42.706Z,76.45
2022-10-28T07:03:40.093Z,75.05
2022-10-28T07:04:38.084Z,74.18
2022-10-28T07:05:38.058Z,74.37
2022-10-28T07:06:38.070Z,72.24
2022-10-28T07:07:38.054Z,72.40
2022-10-28T07:08:38.004Z,71.03
2022-10-28T07:09:38.010Z,71.00
2022-10-28T07:10:37.992Z,69.66
2022-10-28T07:11:37.957Z,69.62
2022-10-28T07:12:37.960Z,69.62
2022-10-28T07:13:37.928Z,69.62
2022-10-28T07:14:37.918Z,69.09
2022-10-28T07:15:37.887Z,69.29
2022-10-28T07:16:37.866Z,69.29
2022-10-28T07:17:37.881Z,68.09
2022-10-28T07:18:37.846Z,68.19
2022-10-28T07:19:37.811Z,68.36
2022-10-28T07:20:37.790Z,67.96
2022-10-28T07:21:37.779Z,68.23
2022-10-28T07:22:37.773Z,67.49
2022-10-28T07:23:37.746Z,67.29
2022-10-28T07:24:37.714Z,67.22
2022-10-28T07:25:37.704Z,67.19
2022-10-28T07:26:37.675Z,65.63
2022-10-28T07:27:37.684Z,66.33
2022-10-28T07:28:37.646Z,65.53
2022-10-28T07:29:37.630Z,66.69
2022-10-28T07:30:37.623Z,66.03
2022-10-28T07:31:37.595Z,66.33
2022-10-28T07:32:37.594Z,66.43
2022-10-28T07:33:37.546Z,65.30
2022-10-28T07:34:37.563Z,65.17
2022-10-28T07:35:37.532Z,66.09
2022-10-28T07:36:37.494Z,64.67
2022-10-28T07:37:37.536Z,65.53
2022-10-28T07:38:37.515Z,65.90
2022-10-28T07:40:37.426Z,65.80
2022-10-28T07:41:37.427Z,65.80
2022-10-28T07:42:37.419Z,65.43
2022-10-28T07:43:37.380Z,65.66
2022-10-28T07:44:37.356Z,66.43
2022-10-28T07:45:37.345Z,65.70
2022-10-28T07:46:37.317Z,64.87
2022-10-28T07:47:37.344Z,64.67
2022-10-28T07:48:37.334Z,64.17
2022-10-28T07:49:37.263Z,64.87
2022-10-28T07:50:37.242Z,64.70
2022-10-28T07:51:37.230Z,65.70
2022-10-28T07:52:37.237Z,64.90
2022-10-28T07:53:37.236Z,64.80
2022-10-28T07:54:37.166Z,64.70
2022-10-28T07:55:37.164Z,65.30
2022-10-28T07:56:37.150Z,64.30
2022-10-28T07:57:39.078Z,63.47
2022-10-28T07:58:37.090Z,64.47
2022-10-28T07:59:37.070Z,64.77
2022-10-28T08:00:37.150Z,64.27
2022-10-28T08:01:37.139Z,64.47
2022-10-28T08:02:37.041Z,65.73
2022-10-28T08:03:38.999Z,66.13
2022-10-28T08:04:38.013Z,66.13
2022-10-28T08:05:36.975Z,65.80
2022-10-28T08:06:36.949Z,65.30
2022-10-28T08:07:38.716Z,65.70
2022-10-28T08:08:36.887Z,65.63
2022-10-28T08:09:36.868Z,66.43
2022-10-28T08:10:36.842Z,66.09
2022-10-28T08:11:36.828Z,64.27
2022-10-28T08:12:38.480Z,65.83
2022-10-28T08:13:40.162Z,66.33
2022-10-28T08:14:37.760Z,64.20
2022-10-28T08:15:36.765Z,66.50
2022-10-28T08:16:36.726Z,66.43
2022-10-28T08:17:36.729Z,66.39
2022-10-28T08:18:36.684Z,66.00
2022-10-28T08:19:36.678Z,66.83
2022-10-28T08:20:36.638Z,66.39
2022-10-28T08:21:36.665Z,66.99
2022-10-28T08:22:36.629Z,66.36
2022-10-28T08:23:36.596Z,66.96
2022-10-28T08:24:36.565Z,65.93
2022-10-28T08:25:36.622Z,66.30
2022-10-28T08:26:36.530Z,66.09
2022-10-28T08:27:37.534Z,65.10
2022-10-28T08:28:36.499Z,65.77
2022-10-28T08:29:36.475Z,65.26
2022-10-28T08:30:50.249Z,64.84
2022-10-28T08:31:38.435Z,64.41
2022-10-28T08:32:36.444Z,64.04
2022-10-28T08:33:36.410Z,64.14
2022-10-28T08:34:39.277Z,64.64
2022-10-28T08:35:37.366Z,64.14
2022-10-28T08:36:36.365Z,63.48
2022-10-28T08:37:36.412Z,62.88
2022-10-28T08:38:36.307Z,63.11
2022-10-28T08:39:36.298Z,64.54
2022-10-28T08:40:36.273Z,64.11
2022-10-28T08:41:36.251Z,64.64
2022-10-28T08:42:37.973Z,64.67
2022-10-28T08:43:52.893Z,64.67
2022-10-28T08:44:38.203Z,64.87
2022-10-28T08:45:36.180Z,64.14
2022-10-28T08:46:36.156Z,63.47
2022-10-28T08:47:36.179Z,63.74
2022-10-28T08:48:36.128Z,64.87
2022-10-28T08:49:36.104Z,64.97
2022-10-28T08:50:36.086Z,64.24
2022-10-28T08:51:36.072Z,64.27
2022-10-28T08:52:36.081Z,65.60
2022-10-28T08:53:36.037Z,64.93
2022-10-28T08:54:36.013Z,66.33
2022-10-28T08:55:35.993Z,66.33
2022-10-28T08:56:35.973Z,66.23
2022-10-28T08:57:36.970Z,66.63
2022-10-28T08:58:35.935Z,65.80
2022-10-28T08:59:35.924Z,64.87
2022-10-28T09:00:35.902Z,64.27
2022-10-28T09:01:36.032Z,64.34
2022-10-28T09:02:35.894Z,65.04
2022-10-28T09:03:38.935Z,64.64
2022-10-28T09:04:35.845Z,64.24
2022-10-28T09:05:35.808Z,64.41
2022-10-28T09:06:35.792Z,63.61
2022-10-28T09:07:35.798Z,64.11
2022-10-28T09:08:35.758Z,64.41
2022-10-28T09:09:35.742Z,64.81
2022-10-28T09:10:35.708Z,63.74
2022-10-28T09:11:35.699Z,64.44
2022-10-28T09:12:38.970Z,65.40
2022-10-28T09:13:35.667Z,65.47
2022-10-28T09:14:35.639Z,63.94
2022-10-28T09:15:35.674Z,64.84
2022-10-28T09:16:35.600Z,64.97
2022-10-28T09:17:35.611Z,65.07
2022-10-28T09:18:35.555Z,64.04
2022-10-28T09:19:35.544Z,64.54
2022-10-28T09:20:35.526Z,66.36
2022-10-28T09:21:35.510Z,65.26
2022-10-28T09:22:35.519Z,65.77
2022-10-28T09:23:35.475Z,65.50
2022-10-28T09:24:35.456Z,66.60
2022-10-28T09:25:35.435Z,66.39
2022-10-28T09:26:35.410Z,64.97
2022-10-28T09:27:35.423Z,64.27
2022-10-28T09:28:35.374Z,66.17
2022-10-28T09:29:37.188Z,65.70
2022-10-28T09:30:35.336Z,65.80
2022-10-28T09:31:35.315Z,66.83
2022-10-28T09:32:35.328Z,66.30
2022-10-28T09:33:35.281Z,67.23
2022-10-28T09:34:35.272Z,66.03
2022-10-28T09:35:35.253Z,66.53
2022-10-28T09:36:35.226Z,66.33
2022-10-28T09:37:35.235Z,67.46
2022-10-28T09:38:35.190Z,66.86
2022-10-28T09:39:35.162Z,67.19
2022-10-28T09:40:35.143Z,67.79
2022-10-28T09:41:35.129Z,67.93
2022-10-28T09:42:35.183Z,69.06
2022-10-28T09:43:35.082Z,69.49
2022-10-28T09:44:36.071Z,69.09
2022-10-28T09:45:35.052Z,69.39
2022-10-28T09:46:37.230Z,69.19
2022-10-28T09:47:37.048Z,68.76
2022-10-28T09:48:35.006Z,68.02
2022-10-28T09:49:34.981Z,67.49
2022-10-28T09:50:34.961Z,67.69
2022-10-28T09:51:34.941Z,67.06
2022-10-28T09:52:34.961Z,66.26
2022-10-28T09:53:36.131Z,66.03
2022-10-28T09:54:35.887Z,66.03
2022-10-28T09:55:34.871Z,65.43
2022-10-28T09:56:34.857Z,67.03
2022-10-28T09:57:34.859Z,65.60
2022-10-28T09:58:34.819Z,65.30
2022-10-28T09:59:34.797Z,66.20
2022-10-28T10:00:34.781Z,64.30
2022-10-28T10:01:34.792Z,63.77
2022-10-28T10:02:34.825Z,64.77
2022-10-28T10:03:34.731Z,64.67
2022-10-28T10:04:34.703Z,64.67
2022-10-28T10:05:34.691Z,64.64
2022-10-28T10:06:34.667Z,65.04
2022-10-28T10:07:34.673Z,62.48
2022-10-28T10:08:34.640Z,63.57
2022-10-28T10:09:34.610Z,64.67
2022-10-28T10:10:34.598Z,63.57
2022-10-28T10:11:34.576Z,63.57
2022-10-28T10:12:34.586Z,64.60
2022-10-28T10:13:34.569Z,64.80
2022-10-28T10:14:34.527Z,65.13
2022-10-28T10:15:34.507Z,64.93
2022-10-28T10:16:34.488Z,64.33
2022-10-28T10:17:34.499Z,66.16
2022-10-28T10:18:35.436Z,66.46
2022-10-28T10:19:34.435Z,66.76
2022-10-28T10:20:34.417Z,65.36
2022-10-28T10:21:34.409Z,64.06
2022-10-28T10:22:34.373Z,65.06
2022-10-28T10:23:34.421Z,65.96
2022-10-28T10:24:34.343Z,64.66
2022-10-28T10:25:34.320Z,65.66
2022-10-28T10:26:34.312Z,65.86
2022-10-28T10:27:34.323Z,66.19
2022-10-28T10:28:34.271Z,66.19
2022-10-28T10:29:34.249Z,66.49
2022-10-28T10:30:34.233Z,66.16
2022-10-28T10:31:34.215Z,65.63
2022-10-28T10:32:34.201Z,66.43
2022-10-28T10:33:34.199Z,65.86
2022-10-28T10:34:34.158Z,64.96
2022-10-28T10:35:34.153Z,64.46
2022-10-28T10:36:34.129Z,64.26
2022-10-28T10:37:34.237Z,65.93
2022-10-28T10:38:34.114Z,64.83
2022-10-28T10:39:34.072Z,64.30
2022-10-28T10:40:34.050Z,65.53
2022-10-28T10:41:34.031Z,63.63
2022-10-28T10:42:39.219Z,66.50
2022-10-28T10:43:35.020Z,64.40
2022-10-28T10:44:33.979Z,64.30
2022-10-28T10:45:34.965Z,63.70
2022-10-28T10:46:34.315Z,62.77
2022-10-28T10:47:33.919Z,62.97
2022-10-28T10:48:33.934Z,63.47
2022-10-28T10:49:33.920Z,64.50
2022-10-28T10:50:33.875Z,64.60
2022-10-28T10:51:36.265Z,64.53
2022-10-28T10:52:35.832Z,64.00
2022-10-28T10:53:33.848Z,64.73
2022-10-28T10:54:33.857Z,64.83
2022-10-28T10:55:33.811Z,64.33
2022-10-28T10:56:33.759Z,65.23
2022-10-28T10:57:33.745Z,64.96
2022-10-28T10:58:33.817Z,65.36
2022-10-28T10:59:33.701Z,65.69
2022-10-28T11:00:33.687Z,65.79
2022-10-28T11:01:33.773Z,65.89
2022-10-28T11:02:33.702Z,66.19
2022-10-28T11:03:33.656Z,65.69
2022-10-28T11:04:33.611Z,66.89
2022-10-28T11:05:38.126Z,65.69
2022-10-28T11:06:35.583Z,65.66
2022-10-28T11:07:33.556Z,65.16
2022-10-28T11:08:33.567Z,65.66
2022-10-28T11:09:33.522Z,65.86
2022-10-28T11:10:33.507Z,64.23
2022-10-28T11:11:33.492Z,65.43
2022-10-28T11:12:33.470Z,64.86
2022-10-28T11:13:33.476Z,64.13
2022-10-28T11:14:33.424Z,66.83
2022-10-28T11:15:33.408Z,64.06
2022-10-28T11:16:33.457Z,64.13
2022-10-28T11:18:33.417Z,66.56
2022-10-28T11:19:33.373Z,64.33
2022-10-28T11:20:33.334Z,64.36
2022-10-28T11:21:33.352Z,66.69
2022-10-28T11:22:33.307Z,64.16
2022-10-28T11:23:33.300Z,65.16
2022-10-28T11:24:33.282Z,64.56
2022-10-28T11:25:33.223Z,64.99
2022-10-28T11:26:33.212Z,64.79
2022-10-28T11:27:33.191Z,66.09
2022-10-28T11:28:33.202Z,65.89
2022-10-28T11:29:33.148Z,64.99
2022-10-28T11:30:33.131Z,64.99
2022-10-28T11:31:33.114Z,64.96
2022-10-28T11:32:33.102Z,65.63
2022-10-28T11:33:33.717Z,65.83
2022-10-28T11:34:33.075Z,66.23
2022-10-28T11:35:33.043Z,64.33
2022-10-28T11:36:33.035Z,66.20
2022-10-28T11:37:33.010Z,64.40
2022-10-28T11:38:33.025Z,64.20
2022-10-28T11:39:32.962Z,64.73
2022-10-28T11:40:32.976Z,63.50
2022-10-28T11:41:32.921Z,64.60
2022-10-28T11:42:32.911Z,62.50
2022-10-28T11:43:33.426Z,63.30
2022-10-28T11:44:32.913Z,65.00
2022-10-28T11:45:32.868Z,63.60
2022-10-28T11:46:32.829Z,63.70
2022-10-28T11:47:32.813Z,64.33
2022-10-28T11:48:32.819Z,64.43
2022-10-28T11:49:32.778Z,64.50
2022-10-28T11:50:32.763Z,63.60
2022-10-28T11:51:32.740Z,63.50
2022-10-28T11:52:32.724Z,63.97
2022-10-28T11:53:32.725Z,63.30
2022-10-28T11:54:32.686Z,63.00
2022-10-28T11:55:32.663Z,62.81
2022-10-28T11:56:32.647Z,63.50
2022-10-28T11:57:32.624Z,63.40
2022-10-28T11:58:32.638Z,63.17
2022-10-28T11:59:32.602Z,64.27
2022-10-28T12:00:32.576Z,64.30
2022-10-28T12:01:32.603Z,64.30
2022-10-28T12:02:32.606Z,63.70
2022-10-28T12:03:32.544Z,63.60
2022-10-28T12:04:32.499Z,63.60
2022-10-28T12:05:32.486Z,64.00
2022-10-28T12:06:32.458Z,64.00
2022-10-28T12:07:32.442Z,64.30
2022-10-28T12:08:32.457Z,63.90
2022-10-28T12:09:32.404Z,65.00
2022-10-28T12:10:32.376Z,64.23
2022-10-28T12:11:32.368Z,66.33
2022-10-28T12:12:32.339Z,64.33
2022-10-28T12:13:32.350Z,65.36
2022-10-28T12:14:32.304Z,66.56
2022-10-28T12:15:32.294Z,65.46
2022-10-28T12:16:32.268Z,65.86
2022-10-28T12:17:32.265Z,66.36
2022-10-28T12:18:32.253Z,65.66
2022-10-28T12:19:32.209Z,65.56
2022-10-28T12:20:32.189Z,67.09
2022-10-28T12:21:32.294Z,67.06
2022-10-28T12:22:32.157Z,66.99
2022-10-28T12:23:32.194Z,66.79
2022-10-28T12:24:32.194Z,66.99
2022-10-28T12:25:32.096Z,66.49
2022-10-28T12:26:32.083Z,67.09
2022-10-28T12:27:32.063Z,66.59
2022-10-28T12:28:32.076Z,67.09
2022-10-28T12:29:32.023Z,67.19
2022-10-28T12:30:32.003Z,66.89
2022-10-28T12:31:31.983Z,67.19
2022-10-28T12:32:31.968Z,66.69
2022-10-28T12:33:31.971Z,67.09
2022-10-28T12:34:31.976Z,66.89
2022-10-28T12:35:31.910Z,66.29
2022-10-28T12:36:31.888Z,66.79
2022-10-28T12:37:31.870Z,67.09
2022-10-28T12:38:31.886Z,66.79
2022-10-28T12:39:31.836Z,66.49
2022-10-28T12:40:31.817Z,67.02
2022-10-28T12:41:31.836Z,67.22
2022-10-28T12:42:31.773Z,66.72
2022-10-28T12:43:31.791Z,66.63
2022-10-28T12:44:31.740Z,66.93
2022-10-28T12:45:31.731Z,65.72
2022-10-28T12:46:31.704Z,66.89
2022-10-28T12:47:31.682Z,66.82
2022-10-28T12:48:31.682Z,66.22
2022-10-28T12:49:31.642Z,67.32
2022-10-28T12:50:31.629Z,67.13
2022-10-28T12:51:31.599Z,65.62
2022-10-28T12:52:31.580Z,66.32
2022-10-28T12:53:31.617Z,66.52
2022-10-28T12:54:31.541Z,66.52